sensor_id;sensor_type;location;lat;lon;timestamp;temperature;humidity
33739;DHT22;20063;51.730;11.110;2023-02-11T00:01:07;4.80;99.90
33739;DHT22;20063;51.730;11.110;2023-02-11T00:03:32;4.80;99.90
33739;DHT22;20063;51.730;11.110;2023-02-11T00:06:04;4.80;99.90
33739;DHT22;20063;51.730;11.110;2023-02-11T00:08:30;4.80;99.90
33739;DHT22;20063;51.730;11.110;2023-02-11T00:10:56;4.80;99.90
33739;DHT22;20063;51.730;11.110;2023-02-11T00:13:24;4.80;99.90
33739;DHT22;20063;51.730;11.110;2023-02-11T00:15:50;4.80;99.90
33739;DHT22;20063;51.730;11.110;2023-02-11T00:18:15;4.80;99.90
33739;DHT22;20063;51.730;11.110;2023-02-11T00:20:41;4.80;99.90
33739;DHT22;20063;51.730;11.110;2023-02-11T00:23:07;4.80;99.90
33739;DHT22;20063;51.730;11.110;2023-02-11T00:25:33;4.80;99.90
33739;DHT22;20063;51.730;11.110;2023-02-11T00:28:01;4.80;99.90
33739;DHT22;20063;51.730;11.110;2023-02-11T00:30:27;4.80;99.90
33739;DHT22;20063;51.730;11.110;2023-02-11T00:32:52;4.80;99.90
33739;DHT22;20063;51.730;11.110;2023-02-11T00:35:18;4.80;99.90
33739;DHT22;20063;51.730;11.110;2023-02-11T00:37:43;4.80;99.90
33739;DHT22;20063;51.730;11.110;2023-02-11T00:40:10;4.80;99.90
33739;DHT22;20063;51.730;11.110;2023-02-11T00:42:35;4.90;99.90
33739;DHT22;20063;51.730;11.110;2023-02-11T00:45:02;4.90;99.90
33739;DHT22;20063;51.730;11.110;2023-02-11T00:47:27;4.90;99.90
33739;DHT22;20063;51.730;11.110;2023-02-11T00:49:53;4.80;99.90
33739;DHT22;20063;51.730;11.110;2023-02-11T00:52:21;4.80;99.90
33739;DHT22;20063;51.730;11.110;2023-02-11T00:54:47;4.90;99.90
33739;DHT22;20063;51.730;11.110;2023-02-11T00:57:12;4.90;99.90
33739;DHT22;20063;51.730;11.110;2023-02-11T00:59:38;4.90;99.90
33739;DHT22;20063;51.730;11.110;2023-02-11T01:02:04;4.80;99.90
33739;DHT22;20063;51.730;11.110;2023-02-11T01:04:30;4.90;99.90
33739;DHT22;20063;51.730;11.110;2023-02-11T01:06:55;4.90;99.90
33739;DHT22;20063;51.730;11.110;2023-02-11T01:09:21;4.90;99.90
33739;DHT22;20063;51.730;11.110;2023-02-11T01:11:47;4.90;99.90
33739;DHT22;20063;51.730;11.110;2023-02-11T01:14:12;4.80;99.90
33739;DHT22;20063;51.730;11.110;2023-02-11T01:16:38;4.80;99.90
33739;DHT22;20063;51.730;11.110;2023-02-11T01:19:04;4.90;99.90
33739;DHT22;20063;51.730;11.110;2023-02-11T01:21:30;4.90;99.90
33739;DHT22;20063;51.730;11.110;2023-02-11T01:23:55;4.90;99.90
33739;DHT22;20063;51.730;11.110;2023-02-11T01:26:21;4.90;99.90
33739;DHT22;20063;51.730;11.110;2023-02-11T01:28:47;4.90;99.90
33739;DHT22;20063;51.730;11.110;2023-02-11T01:31:12;5.00;99.90
33739;DHT22;20063;51.730;11.110;2023-02-11T01:33:38;5.00;99.90
33739;DHT22;20063;51.730;11.110;2023-02-11T01:36:05;5.00;99.90
33739;DHT22;20063;51.730;11.110;2023-02-11T01:38:32;5.10;99.90
33739;DHT22;20063;51.730;11.110;2023-02-11T01:41:04;5.10;99.90
33739;DHT22;20063;51.730;11.110;2023-02-11T01:43:33;5.10;99.90
33739;DHT22;20063;51.730;11.110;2023-02-11T01:48:55;5.20;99.90
33739;DHT22;20063;51.730;11.110;2023-02-11T01:54:17;5.20;99.90
33739;DHT22;20063;51.730;11.110;2023-02-11T01:57:04;5.30;99.90
33739;DHT22;20063;51.730;11.110;2023-02-11T02:02:47;5.30;99.90
33739;DHT22;20063;51.730;11.110;2023-02-11T02:05:39;5.30;99.90
33739;DHT22;20063;51.730;11.110;2023-02-11T02:08:18;5.40;99.90
33739;DHT22;20063;51.730;11.110;2023-02-11T02:10:47;5.40;99.90
33739;DHT22;20063;51.730;11.110;2023-02-11T02:13:14;5.40;99.90
33739;DHT22;20063;51.730;11.110;2023-02-11T02:15:45;5.30;99.90
33739;DHT22;20063;51.730;11.110;2023-02-11T02:33:00;5.30;99.90
33739;DHT22;20063;51.730;11.110;2023-02-11T02:35:40;5.30;99.90
33739;DHT22;20063;51.730;11.110;2023-02-11T02:40:54;5.30;99.90
33739;DHT22;20063;51.730;11.110;2023-02-11T02:43:22;5.30;99.90
33739;DHT22;20063;51.730;11.110;2023-02-11T02:45:48;5.30;99.90
33739;DHT22;20063;51.730;11.110;2023-02-11T02:48:31;5.40;99.90
33739;DHT22;20063;51.730;11.110;2023-02-11T02:51:14;5.30;99.90
33739;DHT22;20063;51.730;11.110;2023-02-11T03:03:05;5.30;99.90
33739;DHT22;20063;51.730;11.110;2023-02-11T03:10:46;5.40;99.90
33739;DHT22;20063;51.730;11.110;2023-02-11T03:13:15;5.40;99.90
33739;DHT22;20063;51.730;11.110;2023-02-11T03:15:43;5.40;99.90
33739;DHT22;20063;51.730;11.110;2023-02-11T03:18:13;5.40;99.90
33739;DHT22;20063;51.730;11.110;2023-02-11T03:20:44;5.40;99.90
33739;DHT22;20063;51.730;11.110;2023-02-11T03:26:04;5.40;99.90
33739;DHT22;20063;51.730;11.110;2023-02-11T03:28:50;5.30;99.90
33739;DHT22;20063;51.730;11.110;2023-02-11T03:31:36;5.30;99.90
33739;DHT22;20063;51.730;11.110;2023-02-11T03:34:09;5.40;99.90
33739;DHT22;20063;51.730;11.110;2023-02-11T03:36:44;5.30;99.90
33739;DHT22;20063;51.730;11.110;2023-02-11T03:39:17;5.30;99.90
33739;DHT22;20063;51.730;11.110;2023-02-11T03:41:44;5.40;99.90
33739;DHT22;20063;51.730;11.110;2023-02-11T03:44:13;5.30;99.90
33739;DHT22;20063;51.730;11.110;2023-02-11T03:46:43;5.30;99.90
33739;DHT22;20063;51.730;11.110;2023-02-11T03:49:20;5.30;99.90
33739;DHT22;20063;51.730;11.110;2023-02-11T03:51:48;5.30;99.90
33739;DHT22;20063;51.730;11.110;2023-02-11T03:54:18;5.30;99.90
33739;DHT22;20063;51.730;11.110;2023-02-11T03:56:51;5.30;99.90
33739;DHT22;20063;51.730;11.110;2023-02-11T03:59:18;5.30;99.90
33739;DHT22;20063;51.730;11.110;2023-02-11T04:01:44;5.30;99.90
33739;DHT22;20063;51.730;11.110;2023-02-11T04:04:09;5.30;99.90
33739;DHT22;20063;51.730;11.110;2023-02-11T04:06:35;5.30;99.90
33739;DHT22;20063;51.730;11.110;2023-02-11T04:09:01;5.30;99.90
33739;DHT22;20063;51.730;11.110;2023-02-11T04:11:26;5.30;99.90
33739;DHT22;20063;51.730;11.110;2023-02-11T04:13:52;5.40;99.90
33739;DHT22;20063;51.730;11.110;2023-02-11T04:16:18;5.30;99.90
33739;DHT22;20063;51.730;11.110;2023-02-11T04:18:44;5.40;99.90
33739;DHT22;20063;51.730;11.110;2023-02-11T04:21:10;5.30;99.90
33739;DHT22;20063;51.730;11.110;2023-02-11T04:23:35;5.30;99.90
33739;DHT22;20063;51.730;11.110;2023-02-11T04:26:01;5.40;99.90
33739;DHT22;20063;51.730;11.110;2023-02-11T04:28:26;5.30;99.90
33739;DHT22;20063;51.730;11.110;2023-02-11T04:30:54;5.30;99.90
33739;DHT22;20063;51.730;11.110;2023-02-11T04:33:20;5.30;99.90
33739;DHT22;20063;51.730;11.110;2023-02-11T04:35:45;5.30;99.90
33739;DHT22;20063;51.730;11.110;2023-02-11T04:38:11;5.30;99.90
33739;DHT22;20063;51.730;11.110;2023-02-11T04:40:37;5.30;99.90
33739;DHT22;20063;51.730;11.110;2023-02-11T04:43:02;5.30;99.90
33739;DHT22;20063;51.730;11.110;2023-02-11T04:45:28;5.30;99.90
33739;DHT22;20063;51.730;11.110;2023-02-11T04:47:56;5.30;99.90
33739;DHT22;20063;51.730;11.110;2023-02-11T04:50:22;5.30;99.90
33739;DHT22;20063;51.730;11.110;2023-02-11T04:52:48;5.30;99.90
33739;DHT22;20063;51.730;11.110;2023-02-11T04:55:13;5.30;99.90
33739;DHT22;20063;51.730;11.110;2023-02-11T04:57:39;5.30;99.90
33739;DHT22;20063;51.730;11.110;2023-02-11T05:00:05;5.30;99.90
33739;DHT22;20063;51.730;11.110;2023-02-11T05:02:31;5.30;99.90
33739;DHT22;20063;51.730;11.110;2023-02-11T05:04:56;5.30;99.90
33739;DHT22;20063;51.730;11.110;2023-02-11T05:07:22;5.30;99.90
33739;DHT22;20063;51.730;11.110;2023-02-11T05:09:48;5.20;99.90
33739;DHT22;20063;51.730;11.110;2023-02-11T05:12:13;5.20;99.90
33739;DHT22;20063;51.730;11.110;2023-02-11T05:14:42;5.20;99.90
33739;DHT22;20063;51.730;11.110;2023-02-11T05:17:08;5.30;99.90
33739;DHT22;20063;51.730;11.110;2023-02-11T05:19:33;5.30;99.90
33739;DHT22;20063;51.730;11.110;2023-02-11T05:21:59;5.20;99.90
33739;DHT22;20063;51.730;11.110;2023-02-11T05:24:24;5.20;99.90
33739;DHT22;20063;51.730;11.110;2023-02-11T05:26:50;5.20;99.90
33739;DHT22;20063;51.730;11.110;2023-02-11T05:29:15;5.20;99.90
33739;DHT22;20063;51.730;11.110;2023-02-11T05:31:41;5.20;99.90
33739;DHT22;20063;51.730;11.110;2023-02-11T05:34:06;5.20;99.90
33739;DHT22;20063;51.730;11.110;2023-02-11T05:36:32;5.20;99.90
33739;DHT22;20063;51.730;11.110;2023-02-11T05:38:58;5.20;99.90
33739;DHT22;20063;51.730;11.110;2023-02-11T05:41:23;5.30;99.90
33739;DHT22;20063;51.730;11.110;2023-02-11T05:43:49;5.20;99.90
33739;DHT22;20063;51.730;11.110;2023-02-11T05:46:18;5.20;99.90
33739;DHT22;20063;51.730;11.110;2023-02-11T05:48:44;5.30;99.90
33739;DHT22;20063;51.730;11.110;2023-02-11T05:51:10;5.30;99.90
33739;DHT22;20063;51.730;11.110;2023-02-11T05:53:36;5.30;99.90
33739;DHT22;20063;51.730;11.110;2023-02-11T05:56:01;5.40;99.90
33739;DHT22;20063;51.730;11.110;2023-02-11T05:58:27;5.30;99.90
33739;DHT22;20063;51.730;11.110;2023-02-11T06:00:53;5.30;99.90
33739;DHT22;20063;51.730;11.110;2023-02-11T06:03:18;5.30;99.90
33739;DHT22;20063;51.730;11.110;2023-02-11T06:05:44;5.30;99.90
33739;DHT22;20063;51.730;11.110;2023-02-11T06:08:11;5.30;99.90
33739;DHT22;20063;51.730;11.110;2023-02-11T06:10:36;5.30;99.90
33739;DHT22;20063;51.730;11.110;2023-02-11T06:13:02;5.30;99.90
33739;DHT22;20063;51.730;11.110;2023-02-11T06:15:29;5.30;99.90
33739;DHT22;20063;51.730;11.110;2023-02-11T06:17:55;5.40;99.90
33739;DHT22;20063;51.730;11.110;2023-02-11T06:20:20;5.30;99.90
33739;DHT22;20063;51.730;11.110;2023-02-11T06:22:46;5.40;99.90
33739;DHT22;20063;51.730;11.110;2023-02-11T06:25:12;5.40;99.90
33739;DHT22;20063;51.730;11.110;2023-02-11T06:27:38;5.40;99.90
33739;DHT22;20063;51.730;11.110;2023-02-11T06:30:06;5.40;99.90
33739;DHT22;20063;51.730;11.110;2023-02-11T06:32:31;5.40;99.90
33739;DHT22;20063;51.730;11.110;2023-02-11T06:34:57;5.50;99.90
33739;DHT22;20063;51.730;11.110;2023-02-11T06:37:23;5.50;99.90
33739;DHT22;20063;51.730;11.110;2023-02-11T06:39:48;5.50;99.90
33739;DHT22;20063;51.730;11.110;2023-02-11T06:42:14;5.50;99.90
33739;DHT22;20063;51.730;11.110;2023-02-11T06:44:39;5.50;99.90
33739;DHT22;20063;51.730;11.110;2023-02-11T06:47:05;5.50;99.90
33739;DHT22;20063;51.730;11.110;2023-02-11T06:49:30;5.50;99.90
33739;DHT22;20063;51.730;11.110;2023-02-11T06:51:56;5.50;99.90
33739;DHT22;20063;51.730;11.110;2023-02-11T06:54:21;5.50;99.90
33739;DHT22;20063;51.730;11.110;2023-02-11T06:56:47;5.50;99.90
33739;DHT22;20063;51.730;11.110;2023-02-11T06:59:17;5.50;99.90
33739;DHT22;20063;51.730;11.110;2023-02-11T07:01:43;5.50;99.90
33739;DHT22;20063;51.730;11.110;2023-02-11T07:04:09;5.40;99.90
33739;DHT22;20063;51.730;11.110;2023-02-11T07:06:35;5.30;99.90
33739;DHT22;20063;51.730;11.110;2023-02-11T07:09:03;5.30;99.90
33739;DHT22;20063;51.730;11.110;2023-02-11T07:11:29;5.30;99.90
33739;DHT22;20063;51.730;11.110;2023-02-11T07:13:59;5.30;99.90
33739;DHT22;20063;51.730;11.110;2023-02-11T07:16:25;5.40;99.90
33739;DHT22;20063;51.730;11.110;2023-02-11T07:18:51;5.30;99.90
33739;DHT22;20063;51.730;11.110;2023-02-11T07:21:19;5.30;99.90
33739;DHT22;20063;51.730;11.110;2023-02-11T07:23:45;5.30;99.90
33739;DHT22;20063;51.730;11.110;2023-02-11T07:26:15;5.30;99.90
33739;DHT22;20063;51.730;11.110;2023-02-11T07:28:42;5.30;99.90
33739;DHT22;20063;51.730;11.110;2023-02-11T07:31:14;5.30;99.90
33739;DHT22;20063;51.730;11.110;2023-02-11T07:33:39;5.30;99.90
33739;DHT22;20063;51.730;11.110;2023-02-11T07:36:06;5.40;99.90
33739;DHT22;20063;51.730;11.110;2023-02-11T07:38:34;5.40;99.90
33739;DHT22;20063;51.730;11.110;2023-02-11T07:41:02;5.50;99.90
33739;DHT22;20063;51.730;11.110;2023-02-11T07:43:28;5.70;99.90
33739;DHT22;20063;51.730;11.110;2023-02-11T07:45:54;5.70;99.90
33739;DHT22;20063;51.730;11.110;2023-02-11T07:48:19;5.80;99.90
33739;DHT22;20063;51.730;11.110;2023-02-11T07:50:45;5.80;99.90
33739;DHT22;20063;51.730;11.110;2023-02-11T07:53:10;5.80;99.90
33739;DHT22;20063;51.730;11.110;2023-02-11T07:55:36;5.80;99.90
33739;DHT22;20063;51.730;11.110;2023-02-11T07:58:02;5.90;99.90
33739;DHT22;20063;51.730;11.110;2023-02-11T08:00:27;6.00;99.90
33739;DHT22;20063;51.730;11.110;2023-02-11T08:02:53;6.00;99.90
33739;DHT22;20063;51.730;11.110;2023-02-11T08:05:18;6.10;99.90
33739;DHT22;20063;51.730;11.110;2023-02-11T08:07:44;6.10;99.90
33739;DHT22;20063;51.730;11.110;2023-02-11T08:10:10;6.10;99.90
33739;DHT22;20063;51.730;11.110;2023-02-11T08:12:35;6.20;99.90
33739;DHT22;20063;51.730;11.110;2023-02-11T08:15:01;6.20;99.90
33739;DHT22;20063;51.730;11.110;2023-02-11T08:17:27;6.10;99.90
33739;DHT22;20063;51.730;11.110;2023-02-11T08:19:52;6.20;99.90
33739;DHT22;20063;51.730;11.110;2023-02-11T08:22:18;6.20;99.90
33739;DHT22;20063;51.730;11.110;2023-02-11T08:24:43;6.20;99.90
33739;DHT22;20063;51.730;11.110;2023-02-11T08:27:09;6.30;99.90
33739;DHT22;20063;51.730;11.110;2023-02-11T08:29:34;6.30;99.90
33739;DHT22;20063;51.730;11.110;2023-02-11T08:32:00;6.30;99.90
33739;DHT22;20063;51.730;11.110;2023-02-11T08:34:26;6.40;99.90
33739;DHT22;20063;51.730;11.110;2023-02-11T08:36:52;6.40;99.90
33739;DHT22;20063;51.730;11.110;2023-02-11T08:39:20;6.30;99.90
33739;DHT22;20063;51.730;11.110;2023-02-11T08:41:48;6.30;99.90
33739;DHT22;20063;51.730;11.110;2023-02-11T08:44:14;6.20;99.90
33739;DHT22;20063;51.730;11.110;2023-02-11T08:46:40;6.20;99.90
33739;DHT22;20063;51.730;11.110;2023-02-11T08:49:05;6.20;99.90
33739;DHT22;20063;51.730;11.110;2023-02-11T08:51:32;6.20;99.90
33739;DHT22;20063;51.730;11.110;2023-02-11T08:53:58;6.30;99.90
33739;DHT22;20063;51.730;11.110;2023-02-11T08:56:24;6.30;99.90
33739;DHT22;20063;51.730;11.110;2023-02-11T08:58:53;6.30;99.90
33739;DHT22;20063;51.730;11.110;2023-02-11T09:01:24;6.30;99.90
33739;DHT22;20063;51.730;11.110;2023-02-11T09:03:50;6.30;99.90
33739;DHT22;20063;51.730;11.110;2023-02-11T09:06:16;6.30;99.90
33739;DHT22;20063;51.730;11.110;2023-02-11T09:08:46;6.30;99.90
33739;DHT22;20063;51.730;11.110;2023-02-11T09:11:13;6.30;99.90
33739;DHT22;20063;51.730;11.110;2023-02-11T09:13:41;6.40;99.90
33739;DHT22;20063;51.730;11.110;2023-02-11T09:16:08;6.50;99.90
33739;DHT22;20063;51.730;11.110;2023-02-11T09:18:42;6.50;99.90
33739;DHT22;20063;51.730;11.110;2023-02-11T09:21:10;6.60;99.90
33739;DHT22;20063;51.730;11.110;2023-02-11T09:23:36;6.60;99.90
33739;DHT22;20063;51.730;11.110;2023-02-11T09:26:06;6.70;99.90
33739;DHT22;20063;51.730;11.110;2023-02-11T09:28:33;6.70;99.90
33739;DHT22;20063;51.730;11.110;2023-02-11T09:30:58;6.80;99.90
33739;DHT22;20063;51.730;11.110;2023-02-11T09:33:24;6.90;99.90
33739;DHT22;20063;51.730;11.110;2023-02-11T09:35:49;7.00;99.90
33739;DHT22;20063;51.730;11.110;2023-02-11T09:38:15;7.00;99.90
33739;DHT22;20063;51.730;11.110;2023-02-11T09:40:44;7.20;99.90
33739;DHT22;20063;51.730;11.110;2023-02-11T09:43:32;7.20;99.90
33739;DHT22;20063;51.730;11.110;2023-02-11T09:46:00;7.30;99.90
33739;DHT22;20063;51.730;11.110;2023-02-11T09:48:26;7.40;99.90
33739;DHT22;20063;51.730;11.110;2023-02-11T09:50:57;7.50;99.90
33739;DHT22;20063;51.730;11.110;2023-02-11T09:53:28;7.50;99.90
33739;DHT22;20063;51.730;11.110;2023-02-11T09:56:11;7.60;99.90
33739;DHT22;20063;51.730;11.110;2023-02-11T09:58:42;7.70;99.90
33739;DHT22;20063;51.730;11.110;2023-02-11T10:07:23;7.80;99.90
33739;DHT22;20063;51.730;11.110;2023-02-11T10:13:46;7.90;99.90
33739;DHT22;20063;51.730;11.110;2023-02-11T10:22:01;7.80;99.90
33739;DHT22;20063;51.730;11.110;2023-02-11T10:24:28;7.80;99.90
33739;DHT22;20063;51.730;11.110;2023-02-11T10:26:54;7.80;99.90
33739;DHT22;20063;51.730;11.110;2023-02-11T10:32:04;7.80;99.90
33739;DHT22;20063;51.730;11.110;2023-02-11T10:34:31;7.80;99.90
33739;DHT22;20063;51.730;11.110;2023-02-11T10:36:57;7.80;99.90
33739;DHT22;20063;51.730;11.110;2023-02-11T10:39:25;7.80;99.90
33739;DHT22;20063;51.730;11.110;2023-02-11T10:41:52;7.80;99.90
33739;DHT22;20063;51.730;11.110;2023-02-11T10:46:51;7.90;99.90
33739;DHT22;20063;51.730;11.110;2023-02-11T10:49:38;7.90;99.90
33739;DHT22;20063;51.730;11.110;2023-02-11T10:55:23;8.10;99.90
33739;DHT22;20063;51.730;11.110;2023-02-11T10:58:00;8.20;99.90
33739;DHT22;20063;51.730;11.110;2023-02-11T11:00:36;8.20;99.90
33739;DHT22;20063;51.730;11.110;2023-02-11T11:03:45;8.30;99.90
33739;DHT22;20063;51.730;11.110;2023-02-11T11:06:11;8.30;99.90
33739;DHT22;20063;51.730;11.110;2023-02-11T11:08:44;8.30;99.90
33739;DHT22;20063;51.730;11.110;2023-02-11T11:11:12;8.40;99.90
33739;DHT22;20063;51.730;11.110;2023-02-11T11:19:22;8.70;99.90
33739;DHT22;20063;51.730;11.110;2023-02-11T11:21:55;8.90;99.90
33739;DHT22;20063;51.730;11.110;2023-02-11T11:26:50;9.10;99.90
33739;DHT22;20063;51.730;11.110;2023-02-11T11:29:41;9.10;99.90
33739;DHT22;20063;51.730;11.110;2023-02-11T11:32:12;9.20;99.90
33739;DHT22;20063;51.730;11.110;2023-02-11T11:34:40;9.20;99.90
33739;DHT22;20063;51.730;11.110;2023-02-11T11:37:27;9.20;99.90
33739;DHT22;20063;51.730;11.110;2023-02-11T11:40:20;9.20;99.90
33739;DHT22;20063;51.730;11.110;2023-02-11T11:45:27;9.30;99.90
33739;DHT22;20063;51.730;11.110;2023-02-11T11:50:42;9.40;99.90
33739;DHT22;20063;51.730;11.110;2023-02-11T11:58:20;9.60;99.90
33739;DHT22;20063;51.730;11.110;2023-02-11T12:01:38;9.70;99.90
33739;DHT22;20063;51.730;11.110;2023-02-11T12:18:11;10.10;99.90
33739;DHT22;20063;51.730;11.110;2023-02-11T12:23:42;10.20;99.90
33739;DHT22;20063;51.730;11.110;2023-02-11T12:26:23;10.20;99.90
33739;DHT22;20063;51.730;11.110;2023-02-11T12:31:47;10.20;99.90
33739;DHT22;20063;51.730;11.110;2023-02-11T12:43:40;10.10;99.90
33739;DHT22;20063;51.730;11.110;2023-02-11T12:59:43;10.10;99.90
33739;DHT22;20063;51.730;11.110;2023-02-11T13:05:03;10.00;99.90
33739;DHT22;20063;51.730;11.110;2023-02-11T13:07:38;9.90;99.90
33739;DHT22;20063;51.730;11.110;2023-02-11T13:10:28;9.90;99.90
33739;DHT22;20063;51.730;11.110;2023-02-11T13:12:55;9.90;99.90
33739;DHT22;20063;51.730;11.110;2023-02-11T13:16:04;9.80;99.90
33739;DHT22;20063;51.730;11.110;2023-02-11T13:18:43;9.80;99.90
33739;DHT22;20063;51.730;11.110;2023-02-11T13:33:04;9.50;99.90
33739;DHT22;20063;51.730;11.110;2023-02-11T13:35:39;9.40;99.90
33739;DHT22;20063;51.730;11.110;2023-02-11T13:38:23;9.40;99.90
33739;DHT22;20063;51.730;11.110;2023-02-11T13:41:04;9.40;99.90
33739;DHT22;20063;51.730;11.110;2023-02-11T13:43:33;9.40;99.90
33739;DHT22;20063;51.730;11.110;2023-02-11T13:46:07;9.40;99.90
33739;DHT22;20063;51.730;11.110;2023-02-11T13:48:46;9.30;99.90
33739;DHT22;20063;51.730;11.110;2023-02-11T13:51:16;9.30;99.90
33739;DHT22;20063;51.730;11.110;2023-02-11T13:53:55;9.30;99.90
33739;DHT22;20063;51.730;11.110;2023-02-11T13:56:36;9.30;99.90
33739;DHT22;20063;51.730;11.110;2023-02-11T13:59:43;9.30;99.90
33739;DHT22;20063;51.730;11.110;2023-02-11T14:02:17;9.20;99.90
33739;DHT22;20063;51.730;11.110;2023-02-11T14:10:55;9.30;99.90
33739;DHT22;20063;51.730;11.110;2023-02-11T14:13:30;9.20;99.90
33739;DHT22;20063;51.730;11.110;2023-02-11T14:16:04;9.30;99.90
33739;DHT22;20063;51.730;11.110;2023-02-11T14:21:31;9.20;99.90
33739;DHT22;20063;51.730;11.110;2023-02-11T14:31:59;9.20;99.90
33739;DHT22;20063;51.730;11.110;2023-02-11T14:34:37;9.30;99.90
33739;DHT22;20063;51.730;11.110;2023-02-11T14:39:54;9.20;99.90
33739;DHT22;20063;51.730;11.110;2023-02-11T14:42:23;9.20;99.90
33739;DHT22;20063;51.730;11.110;2023-02-11T14:44:53;9.20;99.90
33739;DHT22;20063;51.730;11.110;2023-02-11T14:47:28;9.30;99.90
33739;DHT22;20063;51.730;11.110;2023-02-11T14:50:01;9.30;99.90
33739;DHT22;20063;51.730;11.110;2023-02-11T14:52:29;9.30;99.90
33739;DHT22;20063;51.730;11.110;2023-02-11T14:55:11;9.30;99.90
33739;DHT22;20063;51.730;11.110;2023-02-11T14:57:38;9.40;99.90
33739;DHT22;20063;51.730;11.110;2023-02-11T15:00:17;9.40;99.90
33739;DHT22;20063;51.730;11.110;2023-02-11T15:02:43;9.40;99.90
33739;DHT22;20063;51.730;11.110;2023-02-11T15:05:26;9.40;99.90
33739;DHT22;20063;51.730;11.110;2023-02-11T15:08:03;9.30;99.90
33739;DHT22;20063;51.730;11.110;2023-02-11T15:10:36;9.30;99.90
33739;DHT22;20063;51.730;11.110;2023-02-11T15:13:04;9.30;99.90
33739;DHT22;20063;51.730;11.110;2023-02-11T15:15:32;9.30;99.90
33739;DHT22;20063;51.730;11.110;2023-02-11T15:18:02;9.30;99.90
33739;DHT22;20063;51.730;11.110;2023-02-11T15:20:30;9.30;99.90
33739;DHT22;20063;51.730;11.110;2023-02-11T15:23:00;9.30;99.90
33739;DHT22;20063;51.730;11.110;2023-02-11T15:25:26;9.30;99.90
33739;DHT22;20063;51.730;11.110;2023-02-11T15:27:56;9.30;99.90
33739;DHT22;20063;51.730;11.110;2023-02-11T15:30:25;9.20;99.90
33739;DHT22;20063;51.730;11.110;2023-02-11T15:32:59;9.20;99.90
33739;DHT22;20063;51.730;11.110;2023-02-11T15:35:30;9.20;99.90
33739;DHT22;20063;51.730;11.110;2023-02-11T15:37:57;9.10;99.90
33739;DHT22;20063;51.730;11.110;2023-02-11T15:40:26;9.20;99.90
33739;DHT22;20063;51.730;11.110;2023-02-11T15:45:35;9.20;99.90
33739;DHT22;20063;51.730;11.110;2023-02-11T15:48:08;9.20;99.90
33739;DHT22;20063;51.730;11.110;2023-02-11T15:50:37;9.20;99.90
33739;DHT22;20063;51.730;11.110;2023-02-11T15:56:11;9.10;99.90
33739;DHT22;20063;51.730;11.110;2023-02-11T15:58:40;9.10;99.90
33739;DHT22;20063;51.730;11.110;2023-02-11T16:01:07;9.10;99.90
33739;DHT22;20063;51.730;11.110;2023-02-11T16:03:33;9.10;99.90
33739;DHT22;20063;51.730;11.110;2023-02-11T16:09:21;9.10;99.90
33739;DHT22;20063;51.730;11.110;2023-02-11T16:16:49;9.10;99.90
33739;DHT22;20063;51.730;11.110;2023-02-11T16:19:20;9.00;99.90
33739;DHT22;20063;51.730;11.110;2023-02-11T16:21:46;9.10;99.90
33739;DHT22;20063;51.730;11.110;2023-02-11T16:24:33;9.10;99.90
33739;DHT22;20063;51.730;11.110;2023-02-11T16:27:27;9.10;99.90
33739;DHT22;20063;51.730;11.110;2023-02-11T16:29:53;9.00;99.90
33739;DHT22;20063;51.730;11.110;2023-02-11T16:32:22;9.10;99.90
33739;DHT22;20063;51.730;11.110;2023-02-11T16:34:48;9.00;99.90
33739;DHT22;20063;51.730;11.110;2023-02-11T16:37:14;9.00;99.90
33739;DHT22;20063;51.730;11.110;2023-02-11T16:39:43;9.00;99.90
33739;DHT22;20063;51.730;11.110;2023-02-11T16:42:10;8.90;99.90
33739;DHT22;20063;51.730;11.110;2023-02-11T16:44:35;8.90;99.90
33739;DHT22;20063;51.730;11.110;2023-02-11T16:47:02;9.00;99.90
33739;DHT22;20063;51.730;11.110;2023-02-11T16:49:33;9.00;99.90
33739;DHT22;20063;51.730;11.110;2023-02-11T16:52:00;9.00;99.90
33739;DHT22;20063;51.730;11.110;2023-02-11T16:54:27;9.00;99.90
33739;DHT22;20063;51.730;11.110;2023-02-11T16:56:53;9.00;99.90
33739;DHT22;20063;51.730;11.110;2023-02-11T16:59:19;9.00;99.90
33739;DHT22;20063;51.730;11.110;2023-02-11T17:01:49;8.90;99.90
33739;DHT22;20063;51.730;11.110;2023-02-11T17:04:23;9.00;99.90
33739;DHT22;20063;51.730;11.110;2023-02-11T17:06:49;8.90;99.90
33739;DHT22;20063;51.730;11.110;2023-02-11T17:09:21;8.90;99.90
33739;DHT22;20063;51.730;11.110;2023-02-11T17:11:48;8.90;99.90
33739;DHT22;20063;51.730;11.110;2023-02-11T17:14:14;8.90;99.90
33739;DHT22;20063;51.730;11.110;2023-02-11T17:16:40;8.90;99.90
33739;DHT22;20063;51.730;11.110;2023-02-11T17:19:06;8.90;99.90
33739;DHT22;20063;51.730;11.110;2023-02-11T17:21:32;8.80;99.90
33739;DHT22;20063;51.730;11.110;2023-02-11T17:23:58;8.80;99.90
33739;DHT22;20063;51.730;11.110;2023-02-11T17:26:24;8.80;99.90
33739;DHT22;20063;51.730;11.110;2023-02-11T17:28:49;8.80;99.90
33739;DHT22;20063;51.730;11.110;2023-02-11T17:31:15;8.80;99.90
33739;DHT22;20063;51.730;11.110;2023-02-11T17:33:41;8.80;99.90
33739;DHT22;20063;51.730;11.110;2023-02-11T17:36:10;8.80;99.90
33739;DHT22;20063;51.730;11.110;2023-02-11T17:38:36;8.80;99.90
33739;DHT22;20063;51.730;11.110;2023-02-11T17:41:03;8.80;99.90
33739;DHT22;20063;51.730;11.110;2023-02-11T17:43:31;8.80;99.90
33739;DHT22;20063;51.730;11.110;2023-02-11T17:45:57;8.70;99.90
33739;DHT22;20063;51.730;11.110;2023-02-11T17:48:23;8.70;99.90
33739;DHT22;20063;51.730;11.110;2023-02-11T17:50:49;8.80;99.90
33739;DHT22;20063;51.730;11.110;2023-02-11T17:53:15;8.80;99.90
33739;DHT22;20063;51.730;11.110;2023-02-11T17:55:40;8.80;99.90
33739;DHT22;20063;51.730;11.110;2023-02-11T17:58:06;8.70;99.90
33739;DHT22;20063;51.730;11.110;2023-02-11T18:00:32;8.70;99.90
33739;DHT22;20063;51.730;11.110;2023-02-11T18:02:57;8.70;99.90
33739;DHT22;20063;51.730;11.110;2023-02-11T18:05:28;8.70;99.90
33739;DHT22;20063;51.730;11.110;2023-02-11T18:07:57;8.70;99.90
33739;DHT22;20063;51.730;11.110;2023-02-11T18:10:23;8.70;99.90
33739;DHT22;20063;51.730;11.110;2023-02-11T18:12:48;8.80;99.90
33739;DHT22;20063;51.730;11.110;2023-02-11T18:15:14;8.80;99.90
33739;DHT22;20063;51.730;11.110;2023-02-11T18:17:40;8.80;99.90
33739;DHT22;20063;51.730;11.110;2023-02-11T18:20:06;8.80;99.90
33739;DHT22;20063;51.730;11.110;2023-02-11T18:22:32;8.80;99.90
33739;DHT22;20063;51.730;11.110;2023-02-11T18:25:04;8.80;99.90
33739;DHT22;20063;51.730;11.110;2023-02-11T18:27:30;8.80;99.90
33739;DHT22;20063;51.730;11.110;2023-02-11T18:29:56;8.80;99.90
33739;DHT22;20063;51.730;11.110;2023-02-11T18:32:22;8.80;99.90
33739;DHT22;20063;51.730;11.110;2023-02-11T18:34:47;8.70;99.90
33739;DHT22;20063;51.730;11.110;2023-02-11T18:37:13;8.70;99.90
33739;DHT22;20063;51.730;11.110;2023-02-11T18:39:40;8.70;99.90